sensor_id;sensor_type;location;lat;lon;timestamp;P1;durP1;ratioP1;P2;durP2;ratioP2
69226;SDS011;56334;52.398;7.552;2023-01-30T00:01:00;33.50;;;13.70;;
69226;SDS011;56334;52.398;7.552;2023-01-30T00:05:52;29.25;;;9.75;;
69226;SDS011;56334;52.398;7.552;2023-01-30T00:08:18;32.80;;;11.32;;
69226;SDS011;56334;52.398;7.552;2023-01-30T00:10:46;35.55;;;13.57;;
69226;SDS011;56334;52.398;7.552;2023-01-30T00:13:14;38.45;;;12.65;;
69226;SDS011;56334;52.398;7.552;2023-01-30T00:15:40;34.85;;;12.07;;
69226;SDS011;56334;52.398;7.552;2023-01-30T00:18:07;38.25;;;13.73;;
69226;SDS011;56334;52.398;7.552;2023-01-30T00:20:33;35.13;;;12.80;;
69226;SDS011;56334;52.398;7.552;2023-01-30T00:22:59;41.28;;;14.75;;
69226;SDS011;56334;52.398;7.552;2023-01-30T00:25:25;35.75;;;14.35;;
69226;SDS011;56334;52.398;7.552;2023-01-30T00:27:54;35.58;;;14.35;;
69226;SDS011;56334;52.398;7.552;2023-01-30T00:30:20;35.40;;;13.93;;
69226;SDS011;56334;52.398;7.552;2023-01-30T00:32:52;36.13;;;13.20;;
69226;SDS011;56334;52.398;7.552;2023-01-30T00:35:18;39.75;;;15.43;;
69226;SDS011;56334;52.398;7.552;2023-01-30T00:37:44;32.55;;;12.23;;
69226;SDS011;56334;52.398;7.552;2023-01-30T00:40:11;33.50;;;12.13;;
69226;SDS011;56334;52.398;7.552;2023-01-30T00:42:37;37.95;;;13.68;;
69226;SDS011;56334;52.398;7.552;2023-01-30T00:45:22;28.48;;;11.55;;
69226;SDS011;56334;52.398;7.552;2023-01-30T00:48:06;36.83;;;14.15;;
69226;SDS011;56334;52.398;7.552;2023-01-30T00:50:32;35.65;;;13.15;;
69226;SDS011;56334;52.398;7.552;2023-01-30T00:53:10;33.97;;;12.82;;
69226;SDS011;56334;52.398;7.552;2023-01-30T00:55:36;33.88;;;14.15;;
69226;SDS011;56334;52.398;7.552;2023-01-30T00:58:03;39.05;;;15.77;;
69226;SDS011;56334;52.398;7.552;2023-01-30T01:00:29;25.45;;;11.27;;
69226;SDS011;56334;52.398;7.552;2023-01-30T01:02:55;30.35;;;11.73;;
69226;SDS011;56334;52.398;7.552;2023-01-30T01:05:24;35.22;;;14.45;;
69226;SDS011;56334;52.398;7.552;2023-01-30T01:07:51;38.58;;;14.45;;
69226;SDS011;56334;52.398;7.552;2023-01-30T01:10:17;34.00;;;14.10;;
69226;SDS011;56334;52.398;7.552;2023-01-30T01:12:45;37.47;;;15.80;;
69226;SDS011;56334;52.398;7.552;2023-01-30T01:15:12;34.83;;;13.43;;
69226;SDS011;56334;52.398;7.552;2023-01-30T01:17:40;40.08;;;15.43;;
69226;SDS011;56334;52.398;7.552;2023-01-30T01:20:06;31.92;;;12.75;;
69226;SDS011;56334;52.398;7.552;2023-01-30T01:22:33;36.95;;;13.23;;
69226;SDS011;56334;52.398;7.552;2023-01-30T01:24:59;40.83;;;16.42;;
69226;SDS011;56334;52.398;7.552;2023-01-30T01:27:25;38.15;;;15.77;;
69226;SDS011;56334;52.398;7.552;2023-01-30T01:29:51;38.95;;;14.32;;
69226;SDS011;56334;52.398;7.552;2023-01-30T01:32:21;35.95;;;13.27;;
69226;SDS011;56334;52.398;7.552;2023-01-30T01:34:47;35.63;;;14.10;;
69226;SDS011;56334;52.398;7.552;2023-01-30T01:37:13;33.22;;;14.73;;
69226;SDS011;56334;52.398;7.552;2023-01-30T01:39:39;39.72;;;14.77;;
69226;SDS011;56334;52.398;7.552;2023-01-30T01:42:25;39.10;;;15.38;;
69226;SDS011;56334;52.398;7.552;2023-01-30T01:47:37;36.97;;;13.90;;
69226;SDS011;56334;52.398;7.552;2023-01-30T01:50:04;42.92;;;16.15;;
69226;SDS011;56334;52.398;7.552;2023-01-30T01:52:30;45.83;;;17.10;;
69226;SDS011;56334;52.398;7.552;2023-01-30T01:54:58;35.60;;;12.52;;
69226;SDS011;56334;52.398;7.552;2023-01-30T01:57:30;32.53;;;13.30;;
69226;SDS011;56334;52.398;7.552;2023-01-30T02:00:03;39.15;;;14.90;;
69226;SDS011;56334;52.398;7.552;2023-01-30T02:02:31;44.83;;;14.75;;
69226;SDS011;56334;52.398;7.552;2023-01-30T02:04:58;43.47;;;16.13;;
69226;SDS011;56334;52.398;7.552;2023-01-30T02:07:30;44.67;;;16.67;;
69226;SDS011;56334;52.398;7.552;2023-01-30T02:09:58;39.45;;;15.18;;
69226;SDS011;56334;52.398;7.552;2023-01-30T02:12:25;42.38;;;16.92;;
69226;SDS011;56334;52.398;7.552;2023-01-30T02:14:54;47.30;;;18.48;;
69226;SDS011;56334;52.398;7.552;2023-01-30T02:17:30;39.13;;;17.30;;
69226;SDS011;56334;52.398;7.552;2023-01-30T02:28:13;36.33;;;14.05;;
69226;SDS011;56334;52.398;7.552;2023-01-30T02:33:46;39.25;;;15.63;;
69226;SDS011;56334;52.398;7.552;2023-01-30T02:41:28;36.17;;;14.32;;
69226;SDS011;56334;52.398;7.552;2023-01-30T02:44:03;39.30;;;16.33;;
69226;SDS011;56334;52.398;7.552;2023-01-30T02:51:26;36.03;;;13.77;;
69226;SDS011;56334;52.398;7.552;2023-01-30T02:53:57;32.33;;;12.98;;
69226;SDS011;56334;52.398;7.552;2023-01-30T02:56:24;41.30;;;15.15;;
69226;SDS011;56334;52.398;7.552;2023-01-30T02:58:55;35.05;;;14.60;;
69226;SDS011;56334;52.398;7.552;2023-01-30T03:04:10;39.53;;;13.00;;
69226;SDS011;56334;52.398;7.552;2023-01-30T03:11:50;42.55;;;15.95;;
69226;SDS011;56334;52.398;7.552;2023-01-30T03:14:42;34.58;;;12.60;;
69226;SDS011;56334;52.398;7.552;2023-01-30T03:17:10;35.92;;;12.90;;
69226;SDS011;56334;52.398;7.552;2023-01-30T03:19:37;34.70;;;12.88;;
69226;SDS011;56334;52.398;7.552;2023-01-30T03:22:03;39.47;;;15.45;;
69226;SDS011;56334;52.398;7.552;2023-01-30T03:24:30;33.00;;;13.43;;
69226;SDS011;56334;52.398;7.552;2023-01-30T03:27:04;33.40;;;12.93;;
69226;SDS011;56334;52.398;7.552;2023-01-30T03:29:32;37.35;;;14.30;;
69226;SDS011;56334;52.398;7.552;2023-01-30T03:31:59;30.58;;;12.05;;
69226;SDS011;56334;52.398;7.552;2023-01-30T03:34:25;31.30;;;12.75;;
69226;SDS011;56334;52.398;7.552;2023-01-30T03:36:53;26.60;;;10.43;;
69226;SDS011;56334;52.398;7.552;2023-01-30T03:39:19;30.77;;;12.73;;
69226;SDS011;56334;52.398;7.552;2023-01-30T03:41:46;27.67;;;11.43;;
69226;SDS011;56334;52.398;7.552;2023-01-30T03:44:15;30.40;;;11.40;;
69226;SDS011;56334;52.398;7.552;2023-01-30T03:46:41;30.95;;;12.15;;
69226;SDS011;56334;52.398;7.552;2023-01-30T03:49:07;28.80;;;11.10;;
69226;SDS011;56334;52.398;7.552;2023-01-30T03:51:33;29.13;;;10.45;;
69226;SDS011;56334;52.398;7.552;2023-01-30T03:53:59;31.38;;;12.57;;
69226;SDS011;56334;52.398;7.552;2023-01-30T03:56:25;25.23;;;9.93;;
69226;SDS011;56334;52.398;7.552;2023-01-30T03:58:53;24.38;;;10.60;;
69226;SDS011;56334;52.398;7.552;2023-01-30T04:01:19;20.35;;;8.25;;
69226;SDS011;56334;52.398;7.552;2023-01-30T04:03:45;24.90;;;10.98;;
69226;SDS011;56334;52.398;7.552;2023-01-30T04:06:12;25.02;;;10.05;;
69226;SDS011;56334;52.398;7.552;2023-01-30T04:11:04;21.85;;;8.48;;
69226;SDS011;56334;52.398;7.552;2023-01-30T04:13:30;16.27;;;7.30;;
69226;SDS011;56334;52.398;7.552;2023-01-30T04:16:16;21.05;;;9.15;;
69226;SDS011;56334;52.398;7.552;2023-01-30T04:18:43;16.88;;;5.80;;
69226;SDS011;56334;52.398;7.552;2023-01-30T04:21:09;19.58;;;7.50;;
69226;SDS011;56334;52.398;7.552;2023-01-30T04:23:35;17.00;;;6.28;;
69226;SDS011;56334;52.398;7.552;2023-01-30T04:26:02;16.90;;;6.15;;
69226;SDS011;56334;52.398;7.552;2023-01-30T04:28:28;16.63;;;6.00;;
69226;SDS011;56334;52.398;7.552;2023-01-30T04:30:54;13.57;;;6.63;;
69226;SDS011;56334;52.398;7.552;2023-01-30T04:33:20;19.55;;;7.43;;
69226;SDS011;56334;52.398;7.552;2023-01-30T04:35:52;17.80;;;7.05;;
69226;SDS011;56334;52.398;7.552;2023-01-30T04:38:18;16.90;;;6.68;;
69226;SDS011;56334;52.398;7.552;2023-01-30T04:40:47;13.52;;;5.88;;
69226;SDS011;56334;52.398;7.552;2023-01-30T04:43:14;17.48;;;6.90;;
69226;SDS011;56334;52.398;7.552;2023-01-30T04:45:43;17.52;;;6.45;;
69226;SDS011;56334;52.398;7.552;2023-01-30T04:48:11;13.98;;;5.10;;
69226;SDS011;56334;52.398;7.552;2023-01-30T04:50:41;10.95;;;4.15;;
69226;SDS011;56334;52.398;7.552;2023-01-30T04:53:07;15.07;;;4.50;;
69226;SDS011;56334;52.398;7.552;2023-01-30T04:55:34;10.02;;;4.20;;
69226;SDS011;56334;52.398;7.552;2023-01-30T04:58:00;14.52;;;3.75;;
69226;SDS011;56334;52.398;7.552;2023-01-30T05:00:26;11.43;;;2.72;;
69226;SDS011;56334;52.398;7.552;2023-01-30T05:02:52;12.68;;;3.15;;
69226;SDS011;56334;52.398;7.552;2023-01-30T05:05:20;10.93;;;2.70;;
69226;SDS011;56334;52.398;7.552;2023-01-30T05:07:46;9.30;;;2.92;;
69226;SDS011;56334;52.398;7.552;2023-01-30T05:10:12;10.98;;;2.83;;
69226;SDS011;56334;52.398;7.552;2023-01-30T05:12:38;10.98;;;2.55;;
69226;SDS011;56334;52.398;7.552;2023-01-30T05:15:04;15.93;;;4.30;;
69226;SDS011;56334;52.398;7.552;2023-01-30T05:17:31;8.00;;;2.78;;
69226;SDS011;56334;52.398;7.552;2023-01-30T05:19:57;10.48;;;3.97;;
69226;SDS011;56334;52.398;7.552;2023-01-30T05:22:24;13.80;;;4.30;;
69226;SDS011;56334;52.398;7.552;2023-01-30T05:24:50;14.75;;;3.97;;
69226;SDS011;56334;52.398;7.552;2023-01-30T05:27:16;13.27;;;4.15;;
69226;SDS011;56334;52.398;7.552;2023-01-30T05:29:42;14.10;;;3.90;;
69226;SDS011;56334;52.398;7.552;2023-01-30T05:32:14;14.98;;;3.92;;
69226;SDS011;56334;52.398;7.552;2023-01-30T05:34:42;8.40;;;2.55;;
69226;SDS011;56334;52.398;7.552;2023-01-30T05:37:08;14.65;;;4.70;;
69226;SDS011;56334;52.398;7.552;2023-01-30T05:39:34;13.05;;;3.33;;
69226;SDS011;56334;52.398;7.552;2023-01-30T05:42:00;12.57;;;3.25;;
69226;SDS011;56334;52.398;7.552;2023-01-30T05:44:26;10.68;;;2.70;;
69226;SDS011;56334;52.398;7.552;2023-01-30T05:46:52;14.98;;;3.60;;
69226;SDS011;56334;52.398;7.552;2023-01-30T05:49:18;17.05;;;3.88;;
69226;SDS011;56334;52.398;7.552;2023-01-30T05:51:44;16.33;;;3.15;;
69226;SDS011;56334;52.398;7.552;2023-01-30T05:54:10;15.13;;;3.17;;
69226;SDS011;56334;52.398;7.552;2023-01-30T05:56:36;15.25;;;3.35;;
69226;SDS011;56334;52.398;7.552;2023-01-30T05:59:02;9.60;;;2.53;;
69226;SDS011;56334;52.398;7.552;2023-01-30T06:01:29;14.65;;;3.42;;
69226;SDS011;56334;52.398;7.552;2023-01-30T06:03:55;11.48;;;2.40;;
69226;SDS011;56334;52.398;7.552;2023-01-30T06:06:22;7.13;;;1.77;;
69226;SDS011;56334;52.398;7.552;2023-01-30T06:08:51;12.68;;;2.78;;
69226;SDS011;56334;52.398;7.552;2023-01-30T06:11:17;5.47;;;1.63;;
69226;SDS011;56334;52.398;7.552;2023-01-30T06:13:43;16.98;;;3.20;;
69226;SDS011;56334;52.398;7.552;2023-01-30T06:16:10;10.68;;;3.05;;
69226;SDS011;56334;52.398;7.552;2023-01-30T06:18:37;8.93;;;2.42;;
69226;SDS011;56334;52.398;7.552;2023-01-30T06:21:03;14.73;;;2.65;;
69226;SDS011;56334;52.398;7.552;2023-01-30T06:23:29;11.52;;;2.20;;
69226;SDS011;56334;52.398;7.552;2023-01-30T06:25:56;8.43;;;2.05;;
69226;SDS011;56334;52.398;7.552;2023-01-30T06:28:22;9.35;;;2.42;;
69226;SDS011;56334;52.398;7.552;2023-01-30T06:30:49;15.52;;;2.10;;
69226;SDS011;56334;52.398;7.552;2023-01-30T06:33:15;11.80;;;2.53;;
69226;SDS011;56334;52.398;7.552;2023-01-30T06:35:41;13.85;;;2.72;;
69226;SDS011;56334;52.398;7.552;2023-01-30T06:38:07;18.52;;;3.72;;
69226;SDS011;56334;52.398;7.552;2023-01-30T06:40:35;11.73;;;2.80;;
69226;SDS011;56334;52.398;7.552;2023-01-30T06:43:03;18.70;;;2.88;;
69226;SDS011;56334;52.398;7.552;2023-01-30T06:45:29;11.05;;;2.15;;
69226;SDS011;56334;52.398;7.552;2023-01-30T06:47:55;7.43;;;1.33;;
69226;SDS011;56334;52.398;7.552;2023-01-30T06:50:24;10.85;;;2.38;;
69226;SDS011;56334;52.398;7.552;2023-01-30T06:52:50;16.58;;;2.67;;
69226;SDS011;56334;52.398;7.552;2023-01-30T06:55:18;9.23;;;2.10;;
69226;SDS011;56334;52.398;7.552;2023-01-30T06:57:45;13.57;;;2.28;;
69226;SDS011;56334;52.398;7.552;2023-01-30T07:00:15;13.13;;;2.60;;
69226;SDS011;56334;52.398;7.552;2023-01-30T07:02:41;6.80;;;1.27;;
69226;SDS011;56334;52.398;7.552;2023-01-30T07:05:08;18.40;;;2.42;;
69226;SDS011;56334;52.398;7.552;2023-01-30T07:07:34;8.60;;;2.45;;
69226;SDS011;56334;52.398;7.552;2023-01-30T07:10:00;18.85;;;2.45;;
69226;SDS011;56334;52.398;7.552;2023-01-30T07:12:27;11.10;;;2.35;;
69226;SDS011;56334;52.398;7.552;2023-01-30T07:14:53;15.40;;;2.33;;
69226;SDS011;56334;52.398;7.552;2023-01-30T07:17:19;10.23;;;2.05;;
69226;SDS011;56334;52.398;7.552;2023-01-30T07:19:46;10.77;;;1.98;;
69226;SDS011;56334;52.398;7.552;2023-01-30T07:22:12;15.65;;;2.80;;
69226;SDS011;56334;52.398;7.552;2023-01-30T07:24:38;13.05;;;2.50;;
69226;SDS011;56334;52.398;7.552;2023-01-30T07:27:06;11.05;;;1.80;;
69226;SDS011;56334;52.398;7.552;2023-01-30T07:29:36;19.58;;;2.67;;
69226;SDS011;56334;52.398;7.552;2023-01-30T07:32:02;17.08;;;2.22;;
69226;SDS011;56334;52.398;7.552;2023-01-30T07:34:29;18.42;;;3.70;;
69226;SDS011;56334;52.398;7.552;2023-01-30T07:36:55;17.27;;;2.63;;
69226;SDS011;56334;52.398;7.552;2023-01-30T07:39:21;13.95;;;2.28;;
69226;SDS011;56334;52.398;7.552;2023-01-30T07:41:47;15.88;;;2.53;;
69226;SDS011;56334;52.398;7.552;2023-01-30T07:44:13;7.03;;;1.38;;
69226;SDS011;56334;52.398;7.552;2023-01-30T07:46:39;12.32;;;2.33;;
69226;SDS011;56334;52.398;7.552;2023-01-30T07:49:06;16.73;;;2.65;;
69226;SDS011;56334;52.398;7.552;2023-01-30T07:51:33;10.68;;;2.90;;
69226;SDS011;56334;52.398;7.552;2023-01-30T07:53:59;14.10;;;2.47;;
69226;SDS011;56334;52.398;7.552;2023-01-30T07:56:26;15.48;;;2.83;;
69226;SDS011;56334;52.398;7.552;2023-01-30T07:58:53;10.55;;;1.88;;
69226;SDS011;56334;52.398;7.552;2023-01-30T08:01:19;11.05;;;1.80;;
69226;SDS011;56334;52.398;7.552;2023-01-30T08:03:45;12.77;;;2.63;;
69226;SDS011;56334;52.398;7.552;2023-01-30T08:08:39;15.25;;;2.17;;
69226;SDS011;56334;52.398;7.552;2023-01-30T08:11:05;14.38;;;2.22;;
69226;SDS011;56334;52.398;7.552;2023-01-30T08:13:31;15.98;;;2.03;;
69226;SDS011;56334;52.398;7.552;2023-01-30T08:16:00;12.20;;;2.28;;
69226;SDS011;56334;52.398;7.552;2023-01-30T08:18:27;14.05;;;1.98;;
69226;SDS011;56334;52.398;7.552;2023-01-30T08:20:56;13.73;;;2.00;;
69226;SDS011;56334;52.398;7.552;2023-01-30T08:23:22;14.45;;;2.88;;
69226;SDS011;56334;52.398;7.552;2023-01-30T08:25:52;15.60;;;3.00;;
69226;SDS011;56334;52.398;7.552;2023-01-30T08:28:18;14.80;;;3.25;;
69226;SDS011;56334;52.398;7.552;2023-01-30T08:30:44;10.32;;;1.98;;
69226;SDS011;56334;52.398;7.552;2023-01-30T08:33:10;13.23;;;2.38;;
69226;SDS011;56334;52.398;7.552;2023-01-30T08:35:36;9.90;;;2.08;;
69226;SDS011;56334;52.398;7.552;2023-01-30T08:38:04;11.77;;;2.15;;
69226;SDS011;56334;52.398;7.552;2023-01-30T08:40:35;16.63;;;2.50;;
69226;SDS011;56334;52.398;7.552;2023-01-30T08:43:01;10.52;;;1.83;;
69226;SDS011;56334;52.398;7.552;2023-01-30T08:45:27;18.73;;;2.58;;
69226;SDS011;56334;52.398;7.552;2023-01-30T08:48:01;15.82;;;1.85;;
69226;SDS011;56334;52.398;7.552;2023-01-30T08:50:28;17.23;;;2.47;;
69226;SDS011;56334;52.398;7.552;2023-01-30T08:52:54;10.85;;;2.20;;
69226;SDS011;56334;52.398;7.552;2023-01-30T08:55:20;12.32;;;2.20;;
69226;SDS011;56334;52.398;7.552;2023-01-30T08:57:47;13.35;;;2.45;;
69226;SDS011;56334;52.398;7.552;2023-01-30T09:00:13;19.85;;;2.38;;
69226;SDS011;56334;52.398;7.552;2023-01-30T09:02:40;12.82;;;1.83;;
69226;SDS011;56334;52.398;7.552;2023-01-30T09:05:07;16.73;;;2.35;;
69226;SDS011;56334;52.398;7.552;2023-01-30T09:07:35;11.48;;;2.25;;
69226;SDS011;56334;52.398;7.552;2023-01-30T09:10:01;9.90;;;1.80;;
69226;SDS011;56334;52.398;7.552;2023-01-30T09:12:27;11.30;;;1.83;;
69226;SDS011;56334;52.398;7.552;2023-01-30T09:14:53;11.88;;;1.90;;
69226;SDS011;56334;52.398;7.552;2023-01-30T09:17:21;13.43;;;2.03;;
69226;SDS011;56334;52.398;7.552;2023-01-30T09:19:49;12.02;;;2.00;;
69226;SDS011;56334;52.398;7.552;2023-01-30T09:22:15;13.88;;;2.08;;
69226;SDS011;56334;52.398;7.552;2023-01-30T09:24:41;11.40;;;1.80;;
69226;SDS011;56334;52.398;7.552;2023-01-30T09:27:07;11.57;;;1.95;;
69226;SDS011;56334;52.398;7.552;2023-01-30T09:29:34;8.48;;;1.27;;
69226;SDS011;56334;52.398;7.552;2023-01-30T09:32:00;11.20;;;2.17;;
69226;SDS011;56334;52.398;7.552;2023-01-30T09:34:27;12.73;;;1.88;;
69226;SDS011;56334;52.398;7.552;2023-01-30T09:36:54;12.73;;;1.80;;
69226;SDS011;56334;52.398;7.552;2023-01-30T09:39:20;15.38;;;3.05;;
69226;SDS011;56334;52.398;7.552;2023-01-30T09:47:03;10.60;;;1.92;;
69226;SDS011;56334;52.398;7.552;2023-01-30T09:54:37;8.35;;;1.73;;
69226;SDS011;56334;52.398;7.552;2023-01-30T09:57:14;10.68;;;2.08;;
69226;SDS011;56334;52.398;7.552;2023-01-30T10:02:23;8.82;;;1.40;;
69226;SDS011;56334;52.398;7.552;2023-01-30T10:04:51;7.78;;;1.45;;
69226;SDS011;56334;52.398;7.552;2023-01-30T10:18:33;9.55;;;1.48;;
69226;SDS011;56334;52.398;7.552;2023-01-30T10:21:08;7.90;;;1.60;;
69226;SDS011;56334;52.398;7.552;2023-01-30T10:26:22;10.07;;;2.13;;
69226;SDS011;56334;52.398;7.552;2023-01-30T10:31:17;7.00;;;1.30;;
69226;SDS011;56334;52.398;7.552;2023-01-30T10:33:48;10.15;;;1.63;;
69226;SDS011;56334;52.398;7.552;2023-01-30T10:36:20;7.82;;;1.40;;
69226;SDS011;56334;52.398;7.552;2023-01-30T10:38:49;12.13;;;2.10;;
69226;SDS011;56334;52.398;7.552;2023-01-30T10:41:23;15.93;;;1.90;;
69226;SDS011;56334;52.398;7.552;2023-01-30T10:43:59;10.70;;;2.03;;
69226;SDS011;56334;52.398;7.552;2023-01-30T10:53:51;11.32;;;2.70;;
69226;SDS011;56334;52.398;7.552;2023-01-30T10:56:28;10.05;;;1.42;;
69226;SDS011;56334;52.398;7.552;2023-01-30T10:58:59;10.45;;;2.20;;
69226;SDS011;56334;52.398;7.552;2023-01-30T11:03:55;13.18;;;1.70;;
69226;SDS011;56334;52.398;7.552;2023-01-30T11:06:26;11.00;;;2.03;;
69226;SDS011;56334;52.398;7.552;2023-01-30T11:08:53;15.77;;;2.10;;
69226;SDS011;56334;52.398;7.552;2023-01-30T11:13:45;17.48;;;1.60;;
69226;SDS011;56334;52.398;7.552;2023-01-30T11:16:11;13.32;;;1.92;;
69226;SDS011;56334;52.398;7.552;2023-01-30T11:18:47;12.35;;;2.35;;
69226;SDS011;56334;52.398;7.552;2023-01-30T11:21:19;9.27;;;1.70;;
69226;SDS011;56334;52.398;7.552;2023-01-30T11:23:47;15.05;;;1.92;;
69226;SDS011;56334;52.398;7.552;2023-01-30T11:26:34;15.85;;;2.72;;
69226;SDS011;56334;52.398;7.552;2023-01-30T11:29:46;10.63;;;1.33;;
69226;SDS011;56334;52.398;7.552;2023-01-30T11:31:48;18.30;;;2.33;;
69226;SDS011;56334;52.398;7.552;2023-01-30T11:34:15;16.73;;;1.92;;
69226;SDS011;56334;52.398;7.552;2023-01-30T11:36:42;13.10;;;2.38;;
69226;SDS011;56334;52.398;7.552;2023-01-30T11:42:08;14.63;;;2.03;;
69226;SDS011;56334;52.398;7.552;2023-01-30T11:44:33;10.45;;;1.65;;
69226;SDS011;56334;52.398;7.552;2023-01-30T11:47:08;10.48;;;1.85;;
69226;SDS011;56334;52.398;7.552;2023-01-30T11:49:39;12.75;;;1.85;;
69226;SDS011;56334;52.398;7.552;2023-01-30T11:52:22;8.35;;;1.48;;
69226;SDS011;56334;52.398;7.552;2023-01-30T11:57:18;13.77;;;1.98;;
69226;SDS011;56334;52.398;7.552;2023-01-30T12:02:24;10.80;;;1.90;;
69226;SDS011;56334;52.398;7.552;2023-01-30T12:04:54;11.07;;;2.05;;
69226;SDS011;56334;52.398;7.552;2023-01-30T12:09:47;14.10;;;2.88;;
69226;SDS011;56334;52.398;7.552;2023-01-30T12:12:31;13.23;;;2.35;;
69226;SDS011;56334;52.398;7.552;2023-01-30T12:17:44;11.00;;;1.90;;
69226;SDS011;56334;52.398;7.552;2023-01-30T12:20:27;14.88;;;2.35;;
69226;SDS011;56334;52.398;7.552;2023-01-30T12:28:43;10.50;;;2.80;;
69226;SDS011;56334;52.398;7.552;2023-01-30T12:31:13;13.35;;;1.73;;
69226;SDS011;56334;52.398;7.552;2023-01-30T12:33:41;14.75;;;2.50;;
69226;SDS011;56334;52.398;7.552;2023-01-30T12:36:12;11.07;;;1.90;;
69226;SDS011;56334;52.398;7.552;2023-01-30T12:56:52;11.32;;;1.95;;
69226;SDS011;56334;52.398;7.552;2023-01-30T12:59:29;7.65;;;1.38;;
69226;SDS011;56334;52.398;7.552;2023-01-30T13:17:40;11.98;;;1.70;;
69226;SDS011;56334;52.398;7.552;2023-01-30T13:20:14;9.60;;;1.50;;
69226;SDS011;56334;52.398;7.552;2023-01-30T13:27:49;8.88;;;1.42;;
69226;SDS011;56334;52.398;7.552;2023-01-30T13:30:17;7.10;;;1.00;;
69226;SDS011;56334;52.398;7.552;2023-01-30T13:32:48;3.22;;;0.60;;
69226;SDS011;56334;52.398;7.552;2023-01-30T13:35:16;7.97;;;2.05;;
69226;SDS011;56334;52.398;7.552;2023-01-30T13:37:43;8.05;;;1.15;;
69226;SDS011;56334;52.398;7.552;2023-01-30T13:42:51;10.30;;;2.13;;
69226;SDS011;56334;52.398;7.552;2023-01-30T13:45:20;10.13;;;1.63;;
69226;SDS011;56334;52.398;7.552;2023-01-30T13:50:29;9.35;;;1.27;;
69226;SDS011;56334;52.398;7.552;2023-01-30T13:53:15;5.03;;;1.02;;
69226;SDS011;56334;52.398;7.552;2023-01-30T13:55:51;6.72;;;1.50;;
69226;SDS011;56334;52.398;7.552;2023-01-30T14:00:55;4.85;;;0.88;;
69226;SDS011;56334;52.398;7.552;2023-01-30T14:03:26;6.63;;;1.50;;
69226;SDS011;56334;52.398;7.552;2023-01-30T14:08:28;11.98;;;1.63;;
69226;SDS011;56334;52.398;7.552;2023-01-30T14:10:55;11.00;;;1.70;;
69226;SDS011;56334;52.398;7.552;2023-01-30T14:13:22;11.40;;;2.05;;
69226;SDS011;56334;52.398;7.552;2023-01-30T14:15:54;6.53;;;1.35;;
69226;SDS011;56334;52.398;7.552;2023-01-30T14:18:26;8.75;;;1.48;;
69226;SDS011;56334;52.398;7.552;2023-01-30T14:21:10;15.68;;;1.90;;
69226;SDS011;56334;52.398;7.552;2023-01-30T14:23:37;13.93;;;1.98;;
69226;SDS011;56334;52.398;7.552;2023-01-30T14:26:04;7.57;;;1.55;;
69226;SDS011;56334;52.398;7.552;2023-01-30T14:30:57;8.02;;;1.90;;
69226;SDS011;56334;52.398;7.552;2023-01-30T14:38:17;10.77;;;2.03;;
69226;SDS011;56334;52.398;7.552;2023-01-30T14:40:44;8.63;;;2.33;;
69226;SDS011;56334;52.398;7.552;2023-01-30T14:48:40;7.80;;;1.40;;
69226;SDS011;56334;52.398;7.552;2023-01-30T14:53:59;5.22;;;0.80;;
69226;SDS011;56334;52.398;7.552;2023-01-30T14:59:07;13.15;;;2.38;;
69226;SDS011;56334;52.398;7.552;2023-01-30T15:04:18;9.07;;;1.65;;
69226;SDS011;56334;52.398;7.552;2023-01-30T15:06:45;10.82;;;1.65;;
69226;SDS011;56334;52.398;7.552;2023-01-30T15:09:15;8.93;;;1.75;;
69226;SDS011;56334;52.398;7.552;2023-01-30T15:11:41;6.88;;;1.58;;
69226;SDS011;56334;52.398;7.552;2023-01-30T15:14:13;11.48;;;1.70;;
69226;SDS011;56334;52.398;7.552;2023-01-30T15:16:49;12.10;;;1.80;;
69226;SDS011;56334;52.398;7.552;2023-01-30T15:29:57;6.05;;;1.33;;
69226;SDS011;56334;52.398;7.552;2023-01-30T15:32:27;10.50;;;1.92;;
69226;SDS011;56334;52.398;7.552;2023-01-30T15:34:55;14.23;;;2.13;;
69226;SDS011;56334;52.398;7.552;2023-01-30T15:48:02;12.02;;;2.72;;
69226;SDS011;56334;52.398;7.552;2023-01-30T15:50:33;11.50;;;1.73;;
69226;SDS011;56334;52.398;7.552;2023-01-30T15:52:59;12.82;;;2.90;;
69226;SDS011;56334;52.398;7.552;2023-01-30T15:55:30;13.75;;;2.35;;
69226;SDS011;56334;52.398;7.552;2023-01-30T15:58:00;13.98;;;1.67;;
69226;SDS011;56334;52.398;7.552;2023-01-30T16:00:28;13.55;;;2.10;;
69226;SDS011;56334;52.398;7.552;2023-01-30T16:05:22;13.05;;;1.83;;
69226;SDS011;56334;52.398;7.552;2023-01-30T16:10:15;15.10;;;2.38;;
69226;SDS011;56334;52.398;7.552;2023-01-30T16:12:42;11.60;;;2.22;;
69226;SDS011;56334;52.398;7.552;2023-01-30T16:15:13;13.80;;;2.75;;
69226;SDS011;56334;52.398;7.552;2023-01-30T16:17:40;7.22;;;1.17;;
69226;SDS011;56334;52.398;7.552;2023-01-30T16:20:11;12.60;;;2.25;;
69226;SDS011;56334;52.398;7.552;2023-01-30T16:22:40;10.13;;;1.73;;
69226;SDS011;56334;52.398;7.552;2023-01-30T16:25:14;10.57;;;1.92;;
69226;SDS011;56334;52.398;7.552;2023-01-30T16:27:40;12.95;;;2.13;;
69226;SDS011;56334;52.398;7.552;2023-01-30T16:30:08;17.95;;;2.90;;
69226;SDS011;56334;52.398;7.552;2023-01-30T16:32:34;12.20;;;2.83;;
69226;SDS011;56334;52.398;7.552;2023-01-30T16:38:24;16.30;;;2.53;;
69226;SDS011;56334;52.398;7.552;2023-01-30T16:40:49;11.70;;;2.78;;
69226;SDS011;56334;52.398;7.552;2023-01-30T16:43:18;13.93;;;1.55;;
69226;SDS011;56334;52.398;7.552;2023-01-30T16:53:28;8.13;;;1.85;;
69226;SDS011;56334;52.398;7.552;2023-01-30T16:58:31;13.25;;;2.15;;
69226;SDS011;56334;52.398;7.552;2023-01-30T17:00:58;10.70;;;2.10;;
69226;SDS011;56334;52.398;7.552;2023-01-30T17:03:34;11.38;;;2.28;;
69226;SDS011;56334;52.398;7.552;2023-01-30T17:06:01;11.95;;;2.00;;
69226;SDS011;56334;52.398;7.552;2023-01-30T17:11:04;6.07;;;1.27;;
69226;SDS011;56334;52.398;7.552;2023-01-30T17:13:40;14.00;;;2.13;;
69226;SDS011;56334;52.398;7.552;2023-01-30T17:19:12;8.13;;;1.02;;
69226;SDS011;56334;52.398;7.552;2023-01-30T17:21:48;7.20;;;1.58;;
69226;SDS011;56334;52.398;7.552;2023-01-30T17:24:16;7.88;;;1.48;;
69226;SDS011;56334;52.398;7.552;2023-01-30T17:26:43;7.22;;;1.20;;
69226;SDS011;56334;52.398;7.552;2023-01-30T17:29:12;12.95;;;1.80;;
69226;SDS011;56334;52.398;7.552;2023-01-30T17:31:41;13.20;;;2.00;;
69226;SDS011;56334;52.398;7.552;2023-01-30T17:34:08;4.47;;;0.77;;
69226;SDS011;56334;52.398;7.552;2023-01-30T17:36:36;12.40;;;2.13;;
69226;SDS011;56334;52.398;7.552;2023-01-30T17:39:04;14.55;;;2.10;;
69226;SDS011;56334;52.398;7.552;2023-01-30T17:41:33;11.32;;;2.00;;
69226;SDS011;56334;52.398;7.552;2023-01-30T17:44:00;13.45;;;1.90;;
69226;SDS011;56334;52.398;7.552;2023-01-30T17:46:31;14.85;;;2.22;;
69226;SDS011;56334;52.398;7.552;2023-01-30T17:48:59;11.32;;;2.25;;
69226;SDS011;56334;52.398;7.552;2023-01-30T17:51:25;14.38;;;2.25;;
69226;SDS011;56334;52.398;7.552;2023-01-30T17:53:51;12.52;;;2.10;;
69226;SDS011;56334;52.398;7.552;2023-01-30T17:56:21;10.32;;;1.88;;
69226;SDS011;56334;52.398;7.552;2023-01-30T17:58:48;20.05;;;2.50;;
69226;SDS011;56334;52.398;7.552;2023-01-30T18:01:17;11.70;;;1.70;;
69226;SDS011;56334;52.398;7.552;2023-01-30T18:03:46;9.65;;;1.58;;
69226;SDS011;56334;52.398;7.552;2023-01-30T18:06:12;10.82;;;2.35;;
69226;SDS011;56334;52.398;7.552;2023-01-30T18:08:39;20.70;;;3.42;;
69226;SDS011;56334;52.398;7.552;2023-01-30T18:11:05;12.38;;;1.63;;
69226;SDS011;56334;52.398;7.552;2023-01-30T18:13:35;16.02;;;2.40;;
69226;SDS011;56334;52.398;7.552;2023-01-30T18:16:01;15.02;;;2.53;;